KCMY

Sparta / Fort Mc Coy Airport

Sparta, Wisconsin, USA
METAR KCMY 172215Z AUTO 00000KT 10SM CLR 22/19 A3001 RMK AO2 T02180190
Observed Flight Rules
Aug-17 @ 22:15 UTC (21 minutes ago) Visual Flight Rules
Visibility Clouds
10 miles
  • Clear skies
Temperatures Readings
Current 22°C / 72°F
Dewpoint 19°C / 66°F
Humidity 83%
Altimeter 30.01" Hg
Pressure 1016 hPa
Elevation 256
METAR KCMY 172215Z AUTO 00000KT 10SM CLR 22/19 A3001 RMK AO2 T02180190
Observed Flight Rules
Aug-17 @ 22:15 UTC
(21 minutes ago)
VFR
Clouds
  • Clear skies
Temperature Dewpoint
22°C / 72°F 19°C / 66°F
Humidity Altimeter Pressure
83% 30.01" Hg 1016 hPa